This is the latest recevied weather packets stored in our database for station/object KB4RFE. If no packets are shown the sender has not sent any weather packets the latest 1 day(s).
| Time | Temp. | Humidity | Pressure | Rain* | Wind** | Luminosity | Snow |
|---|---|---|---|---|---|---|---|
| 1778028765 | 20.56° C | 71% | 1019.3 hPa | 0 mm | 0 m/s | 0 W/m² | - |
| 1778028461 | 20.56° C | 71% | 1019.2 hPa | 0 mm | 0 m/s | 0 W/m² | - |
| 1778028159 | 20.56° C | 71% | 1019.4 hPa | 0 mm | 0.89 m/s, 190° | 0 W/m² | - |
| 1778027854 | 20.56° C | 71% | 1019.4 hPa | 0 mm | 0.45 m/s, 265° | 0 W/m² | - |
| 1778027551 | 20.56° C | 71% | 1019.3 hPa | 0 mm | 0 m/s | 0 W/m² | - |
| 1778027247 | 20.56° C | 71% | 1019.6 hPa | 0 mm | 1.79 m/s, 208° | 0 W/m² | - |
| 1778026943 | 20.56° C | 71% | 1019.5 hPa | 0 mm | 0.45 m/s, 255° | 0 W/m² | - |
| 1778026639 | 20.56° C | 70% | 1019.5 hPa | 0 mm | 0.89 m/s, 302° | 0 W/m² | - |
| 1778026337 | 21.11° C | 69% | 1019.4 hPa | 0 mm | 0.89 m/s, 248° | 1 W/m² | - |
| 1778026034 | 21.11° C | 68% | 1019.6 hPa | 0 mm | 0.89 m/s, 238° | 2 W/m² | - |
| 1778025731 | 21.11° C | 68% | 1019.4 hPa | 0 mm | 1.34 m/s, 242° | 4 W/m² | - |
| 1778025429 | 21.11° C | 68% | 1019.5 hPa | 0 mm | 0.89 m/s, 265° | 6 W/m² | - |
| 1778025126 | 21.11° C | 67% | 1019.5 hPa | 0 mm | 1.34 m/s, 233° | 9 W/m² | - |
| 1778024823 | 21.11° C | 67% | 1019.3 hPa | 0 mm | 0.89 m/s, 261° | 12 W/m² | - |
| 1778024520 | 21.11° C | 66% | 1019.3 hPa | 0 mm | 1.79 m/s, 241° | 15 W/m² | - |
| 1778024216 | 21.67° C | 66% | 1019.3 hPa | 0 mm | 1.79 m/s, 243° | 18 W/m² | - |
| 1778023915 | 21.67° C | 64% | 1019.4 hPa | 0 mm | 1.79 m/s, 246° | 20 W/m² | - |
| 1778023612 | 21.67° C | 64% | 1019.2 hPa | 0 mm | 1.79 m/s, 226° | 23 W/m² | - |
| 1778023309 | 21.67° C | 65% | 1019.2 hPa | 0 mm | 2.24 m/s, 265° | 26 W/m² | - |
| 1778023006 | 21.67° C | 63% | 1019.4 hPa | 0 mm | 1.79 m/s, 250° | 27 W/m² | - |
| 1778022705 | 21.67° C | 63% | 1019.4 hPa | 0 mm | 0.89 m/s, 287° | 28 W/m² | - |
| 1778022402 | 21.67° C | 63% | 1019.5 hPa | 0 mm | 4.02 m/s, 237° | 30 W/m² | - |
| 1778022099 | 21.67° C | 66% | 1019.6 hPa | 0 mm | 0.89 m/s, 264° | 32 W/m² | - |
| 1778021795 | 22.22° C | 65% | 1019.5 hPa | 0 mm | 3.13 m/s, 225° | 34 W/m² | - |
| 1778021491 | 22.22° C | 64% | 1019.3 hPa | 0 mm | 3.13 m/s, 229° | 33 W/m² | - |
* Rain latest hour (hover to see other rain measurements)
** Current wind speed in m/s (hover to see current wind gust speed)